Time;durP1;ratioP1;P1;durP2;ratioP2;P2;SDS_P1;SDS_P2;PMS_P1;PMS_P2;Temp;Humidity;BMP_temperature;BMP_pressure;BME280_temperature;BME280_humidity;BME280_pressure;Samples;Min_cycle;Max_cycle;Signal;HPM_P1;HPM_P2
2023/03/09 00:01:21;;;;;;;0.85;0.20;;;18.70;60.30;;;;;;5068022;28;20157;-78
2023/03/09 00:03:49;;;;;;;0.82;0.20;;;18.70;59.60;;;;;;5054592;28;20049;-78
2023/03/09 00:06:16;;;;;;;0.60;0.10;;;18.70;59.50;;;;;;5051457;28;20687;-78
2023/03/09 00:08:43;;;;;;;0.70;0.30;;;18.80;59.50;;;;;;5056550;28;20049;-78
2023/03/09 00:11:10;;;;;;;1.90;0.20;;;18.80;59.40;;;;;;5049078;28;20072;-78
2023/03/09 00:13:37;;;;;;;0.98;0.32;;;18.90;59.30;;;;;;5050863;28;20068;-77
2023/03/09 00:16:12;;;;;;;0.65;0.13;;;18.90;59.20;;;;;;5050145;28;20402;-78
2023/03/09 00:18:41;;;;;;;0.75;0.15;;;19.00;59.10;;;;;;5054443;28;20044;-77
2023/03/09 00:21:08;;;;;;;1.58;0.22;;;19.10;59.00;;;;;;5062613;28;20064;-78
2023/03/09 00:23:36;;;;;;;0.82;0.20;;;19.10;58.80;;;;;;5069742;28;20067;-78
2023/03/09 00:26:05;;;;;;;1.40;0.30;;;19.20;58.70;;;;;;5060835;28;20048;-78
2023/03/09 00:28:32;;;;;;;1.35;0.20;;;19.20;58.60;;;;;;5049791;28;20049;-78
2023/03/09 00:31:03;;;;;;;1.00;0.28;;;19.30;58.60;;;;;;5049738;28;20089;-78
2023/03/09 00:33:30;;;;;;;0.93;0.22;;;19.30;58.50;;;;;;5049695;28;20049;-77
2023/03/09 00:35:59;;;;;;;0.98;0.20;;;19.30;58.50;;;;;;5048518;28;20060;-78
2023/03/09 00:38:26;;;;;;;0.73;0.25;;;19.30;58.50;;;;;;5071904;28;20043;-78
2023/03/09 00:40:53;;;;;;;1.73;0.15;;;19.30;58.50;;;;;;5082453;28;20067;-78
2023/03/09 00:43:20;;;;;;;1.65;0.20;;;19.30;58.60;;;;;;5069870;28;20070;-78
2023/03/09 00:45:47;;;;;;;1.20;0.30;;;19.20;58.50;;;;;;5068510;28;20048;-78
2023/03/09 00:48:14;;;;;;;0.70;0.17;;;19.20;58.60;;;;;;5069512;28;20052;-78
2023/03/09 00:50:41;;;;;;;1.02;0.30;;;19.20;58.60;;;;;;5053718;28;20049;-78
2023/03/09 00:53:09;;;;;;;0.55;0.30;;;19.20;58.70;;;;;;5053851;28;20056;-78
2023/03/09 00:55:36;;;;;;;1.13;0.38;;;19.20;58.80;;;;;;5060926;28;20104;-78
2023/03/09 00:58:03;;;;;;;1.00;0.38;;;19.10;58.70;;;;;;5072291;28;20118;-78
2023/03/09 01:00:32;;;;;;;0.80;0.22;;;19.10;58.80;;;;;;5073254;28;20455;-77
2023/03/09 01:02:59;;;;;;;;;;;19.00;58.80;;;;;;5074252;28;20053;-78
2023/03/09 01:05:26;;;;;;;0.90;0.20;;;19.00;58.70;;;;;;5072679;28;19929;-78
2023/03/09 01:07:53;;;;;;;1.30;0.30;;;19.00;58.90;;;;;;5065118;28;20490;-78
2023/03/09 01:10:22;;;;;;;1.08;0.20;;;19.00;58.90;;;;;;5065103;28;20052;-78
2023/03/09 01:12:49;;;;;;;0.70;0.20;;;18.90;58.90;;;;;;5071926;28;20110;-78
2023/03/09 01:15:16;;;;;;;0.70;0.13;;;18.90;59.00;;;;;;5087123;28;20113;-78
2023/03/09 01:17:43;;;;;;;1.05;0.25;;;18.90;59.10;;;;;;5093556;28;20047;-78
2023/03/09 01:20:12;;;;;;;0.82;0.20;;;18.80;59.00;;;;;;5068526;28;20087;-78
2023/03/09 01:22:39;;;;;;;0.77;0.20;;;18.80;59.10;;;;;;5053388;28;20126;-78
2023/03/09 01:25:07;;;;;;;0.80;0.22;;;18.80;59.20;;;;;;5057500;28;20049;-78
2023/03/09 01:27:36;;;;;;;0.68;0.10;;;18.70;59.20;;;;;;5070052;28;20068;-78
2023/03/09 01:30:03;;;;;;;1.15;0.28;;;18.70;59.30;;;;;;5071784;28;20044;-78
2023/03/09 01:32:30;;;;;;;1.30;0.13;;;18.70;59.40;;;;;;5073036;28;20056;-77
2023/03/09 01:34:57;;;;;;;0.80;0.20;;;18.60;60.00;;;;;;5067773;28;20123;-77
2023/03/09 01:37:25;;;;;;;1.45;0.22;;;18.60;59.40;;;;;;5053327;28;20156;-78
2023/03/09 01:39:51;;;;;;;0.63;0.10;;;18.60;59.40;;;;;;5052868;28;20049;-77
2023/03/09 01:42:18;;;;;;;0.73;0.10;;;18.60;59.40;;;;;;5051340;28;20051;-78
2023/03/09 01:45:32;;;;;;;0.80;0.30;;;18.60;59.40;;;;;;5052678;28;20470;-78
2023/03/09 01:48:00;;;;;;;1.10;0.30;;;18.60;59.40;;;;;;5066553;28;20072;-77
2023/03/09 01:50:31;;;;;;;0.95;0.20;;;18.60;59.30;;;;;;5062646;28;20133;-78
2023/03/09 01:53:03;;;;;;;0.50;0.30;;;18.60;59.30;;;;;;5071343;28;20049;-78
2023/03/09 01:55:35;;;;;;;0.95;0.20;;;18.60;59.20;;;;;;5072511;28;20052;-78
2023/03/09 01:58:07;;;;;;;0.95;0.20;;;18.70;59.20;;;;;;5069533;28;20093;-78
2023/03/09 02:00:36;;;;;;;1.15;0.35;;;18.70;59.20;;;;;;5072438;28;20056;-77
2023/03/09 02:03:08;;;;;;;0.85;0.30;;;18.70;59.10;;;;;;5071431;28;20056;-78
2023/03/09 02:05:40;;;;;;;1.25;0.35;;;18.80;59.00;;;;;;5070396;28;20052;-78
2023/03/09 02:08:08;;;;;;;0.65;0.20;;;18.90;59.00;;;;;;5070538;28;20062;-78
2023/03/09 02:10:38;;;;;;;1.00;0.20;;;18.90;58.80;;;;;;5068371;28;20044;-78
2023/03/09 02:13:09;;;;;;;0.90;0.20;;;18.90;58.70;;;;;;5061227;28;20053;-78
2023/03/09 02:15:37;;;;;;;0.90;0.30;;;19.00;58.60;;;;;;5071730;28;20494;-78
2023/03/09 02:18:05;;;;;;;0.75;0.20;;;19.10;58.50;;;;;;5064292;28;20037;-78
2023/03/09 02:20:39;;;;;;;0.95;0.22;;;19.10;58.50;;;;;;5071360;28;20122;-78
2023/03/09 02:23:13;;;;;;;0.88;0.50;;;19.10;58.40;;;;;;5069274;28;20056;-78
2023/03/09 02:25:49;;;;;;;0.85;0.25;;;19.10;58.40;;;;;;5064291;28;20068;-78
2023/03/09 02:28:19;;;;;;;0.70;0.10;;;19.10;58.40;;;;;;5066892;28;20464;-78
2023/03/09 02:30:47;;;;;;;;;;;19.10;58.40;;;;;;5066874;28;20052;-78
2023/03/09 02:33:25;;;;;;;0.75;0.20;;;19.10;58.40;;;;;;5051146;28;19925;-78
2023/03/09 02:35:53;;;;;;;0.63;0.17;;;19.00;58.40;;;;;;5058091;28;20040;-78
2023/03/09 02:38:20;;;;;;;1.30;0.20;;;19.00;58.50;;;;;;5070991;28;20060;-78
2023/03/09 02:40:48;;;;;;;0.93;0.28;;;19.00;58.50;;;;;;5068479;28;20059;-78
2023/03/09 02:43:19;;;;;;;1.10;0.35;;;19.00;58.50;;;;;;5066406;28;20052;-78
2023/03/09 02:45:48;;;;;;;0.70;0.10;;;19.00;58.60;;;;;;5067817;28;20531;-77
2023/03/09 02:48:15;;;;;;;0.60;0.17;;;18.90;58.60;;;;;;5069393;28;20071;-78
2023/03/09 02:50:43;;;;;;;1.25;0.30;;;18.90;58.60;;;;;;5070908;28;20064;-78
2023/03/09 02:53:10;;;;;;;0.60;0.20;;;18.80;58.60;;;;;;5068877;28;20505;-77
2023/03/09 02:55:37;;;;;;;0.90;0.30;;;18.90;58.80;;;;;;5066160;28;20426;-78
2023/03/09 02:58:04;;;;;;;0.60;0.15;;;18.80;58.70;;;;;;5050249;28;20057;-78
2023/03/09 03:00:32;;;;;;;1.10;0.20;;;18.80;58.80;;;;;;5064736;28;20052;-78
2023/03/09 03:02:59;;;;;;;0.98;0.20;;;18.80;58.80;;;;;;5067399;28;20048;-78
2023/03/09 03:05:26;;;;;;;0.55;0.20;;;18.70;58.90;;;;;;5067799;28;20049;-78
2023/03/09 03:07:53;;;;;;;0.73;0.20;;;18.70;58.90;;;;;;5069782;28;20052;-78
2023/03/09 03:10:20;;;;;;;0.90;0.30;;;18.70;58.90;;;;;;5066403;28;20057;-78
2023/03/09 03:12:47;;;;;;;0.98;0.10;;;18.70;59.00;;;;;;5069751;28;20566;-78
2023/03/09 03:15:14;;;;;;;0.77;0.10;;;18.60;58.90;;;;;;5069174;28;20087;-78
2023/03/09 03:17:42;;;;;;;0.82;0.38;;;18.60;59.00;;;;;;5073645;28;20048;-77
2023/03/09 03:20:14;;;;;;;0.90;0.20;;;18.60;59.00;;;;;;5090305;28;20044;-78
2023/03/09 03:22:41;;;;;;;0.70;0.17;;;18.60;59.00;;;;;;5065404;28;20498;-77
2023/03/09 03:25:09;;;;;;;0.95;0.20;;;18.60;59.00;;;;;;5049616;28;20501;-77
2023/03/09 03:27:36;;;;;;;0.77;0.10;;;18.60;59.00;;;;;;5051526;28;20061;-78
2023/03/09 03:30:03;;;;;;;0.68;0.10;;;18.60;58.90;;;;;;5060554;28;20040;-78
2023/03/09 03:32:30;;;;;;;0.88;0.20;;;18.60;58.90;;;;;;5090186;28;20070;-77
2023/03/09 03:34:59;;;;;;;1.10;0.20;;;18.70;58.90;;;;;;5091312;28;20058;-77
2023/03/09 03:37:26;;;;;;;1.17;0.15;;;18.70;58.80;;;;;;5089813;28;20052;-77
2023/03/09 03:39:53;;;;;;;0.98;0.40;;;18.70;58.80;;;;;;5089839;28;20056;-78
2023/03/09 03:42:20;;;;;;;0.55;0.20;;;18.80;58.70;;;;;;5089666;28;20056;-77
2023/03/09 03:44:47;;;;;;;1.42;0.30;;;18.80;58.70;;;;;;5075576;28;20540;-78
2023/03/09 03:47:14;;;;;;;0.70;0.20;;;18.80;59.20;;;;;;5070095;28;20577;-78
2023/03/09 03:49:41;;;;;;;0.93;0.22;;;18.90;58.50;;;;;;5070368;28;20048;-78
2023/03/09 03:52:11;;;;;;;0.70;0.30;;;19.00;58.50;;;;;;5069189;28;20152;-78
2023/03/09 03:54:37;;;;;;;0.95;0.50;;;19.10;58.40;;;;;;5070237;28;20139;-78
2023/03/09 03:57:05;;;;;;;0.98;0.30;;;19.10;58.20;;;;;;5070626;28;20049;-78
2023/03/09 03:59:32;;;;;;;0.82;0.20;;;19.20;58.10;;;;;;5051854;28;20103;-78
2023/03/09 04:01:59;;;;;;;0.90;0.30;;;19.20;57.90;;;;;;5050194;28;20091;-78
2023/03/09 04:04:26;;;;;;;0.65;0.20;;;19.30;57.80;;;;;;5049036;28;20057;-78
2023/03/09 04:06:53;;;;;;;1.23;0.20;;;19.40;57.70;;;;;;5064806;28;20052;-78
2023/03/09 04:09:21;;;;;;;0.85;0.13;;;19.40;57.70;;;;;;5089133;28;20052;-78
2023/03/09 04:11:49;;;;;;;0.82;0.20;;;19.40;57.60;;;;;;5089168;28;20048;-78
2023/03/09 04:14:16;;;;;;;0.95;0.20;;;19.40;57.70;;;;;;5063122;28;20109;-78
2023/03/09 04:16:43;;;;;;;0.68;0.10;;;19.40;57.70;;;;;;5069962;28;20240;-78
2023/03/09 04:19:10;;;;;;;0.80;0.10;;;19.40;57.80;;;;;;5069821;28;20045;-78
2023/03/09 04:21:37;;;;;;;0.80;0.20;;;19.30;57.70;;;;;;5069463;28;20405;-78
2023/03/09 04:24:05;;;;;;;0.60;0.15;;;19.30;57.80;;;;;;5069695;28;20048;-78
2023/03/09 04:26:33;;;;;;;0.80;0.20;;;19.30;57.90;;;;;;5069023;28;20056;-77
2023/03/09 04:29:00;;;;;;;0.70;0.15;;;19.30;58.30;;;;;;5068842;28;20052;-78
2023/03/09 04:31:27;;;;;;;0.93;0.20;;;19.20;57.90;;;;;;5068547;28;20421;-78
2023/03/09 04:33:54;;;;;;;0.80;0.20;;;19.20;58.00;;;;;;5068784;28;20056;-78
2023/03/09 04:36:21;;;;;;;0.80;0.17;;;19.10;58.00;;;;;;5069697;28;20060;-78
2023/03/09 04:38:48;;;;;;;0.80;0.28;;;19.10;58.10;;;;;;5070045;28;20059;-78
2023/03/09 04:41:15;;;;;;;0.68;0.20;;;19.10;58.10;;;;;;5067333;28;20137;-78
2023/03/09 04:43:43;;;;;;;0.85;0.10;;;19.10;58.20;;;;;;5068525;28;20159;-78
2023/03/09 04:46:10;;;;;;;1.75;0.40;;;19.00;58.20;;;;;;5069444;28;20067;-78
2023/03/09 04:48:37;;;;;;;0.82;0.45;;;19.00;58.20;;;;;;5069924;28;20048;-78
2023/03/09 04:51:04;;;;;;;0.85;0.17;;;19.00;58.30;;;;;;5066577;28;20060;-78
2023/03/09 04:53:31;;;;;;;0.82;0.13;;;18.90;58.30;;;;;;5069538;28;20086;-78
2023/03/09 04:55:58;;;;;;;0.93;0.20;;;18.90;58.40;;;;;;5069774;28;20051;-78
2023/03/09 04:58:25;;;;;;;1.02;0.28;;;18.90;58.40;;;;;;5070010;28;20048;-78
2023/03/09 05:00:53;;;;;;;0.80;0.20;;;18.80;58.40;;;;;;5069585;28;20127;-78
2023/03/09 05:03:21;;;;;;;0.77;0.13;;;18.80;58.50;;;;;;5068814;28;20114;-78
2023/03/09 05:05:48;;;;;;;0.70;0.10;;;18.70;58.50;;;;;;5068360;28;20056;-78
2023/03/09 05:08:15;;;;;;;0.68;0.20;;;18.70;58.60;;;;;;5088010;28;20089;-78
2023/03/09 05:10:42;;;;;;;0.57;0.10;;;18.70;58.70;;;;;;5068324;28;20060;-77
2023/03/09 05:13:09;;;;;;;0.50;0.17;;;18.70;58.80;;;;;;5064733;28;20056;-78
2023/03/09 05:15:38;;;;;;;0.70;0.20;;;18.60;58.70;;;;;;5071012;28;20049;-77
2023/03/09 05:18:07;;;;;;;0.40;0.10;;;18.60;58.80;;;;;;5063809;28;20055;-78
2023/03/09 05:20:34;;;;;;;1.00;0.20;;;18.50;58.70;;;;;;5061484;28;20060;-78
2023/03/09 05:23:01;;;;;;;0.73;0.20;;;18.60;58.80;;;;;;5055616;28;20152;-78
2023/03/09 05:25:28;;;;;;;0.60;0.20;;;18.50;58.60;;;;;;5069097;28;20063;-78
2023/03/09 05:27:55;;;;;;;1.10;0.10;;;18.60;58.70;;;;;;5062361;28;20110;-78
2023/03/09 05:30:22;;;;;;;0.77;0.50;;;18.60;58.70;;;;;;5084473;28;20052;-78
2023/03/09 05:32:50;;;;;;;0.65;0.13;;;18.60;58.70;;;;;;5091287;28;20044;-78
2023/03/09 05:35:19;;;;;;;0.73;0.20;;;18.60;58.70;;;;;;5091980;28;20143;-78
2023/03/09 05:37:46;;;;;;;0.70;0.22;;;18.60;58.70;;;;;;5091790;28;20126;-78
2023/03/09 05:40:14;;;;;;;0.70;0.28;;;18.60;58.70;;;;;;5093266;28;20055;-77
2023/03/09 05:42:41;;;;;;;0.70;0.10;;;18.60;58.60;;;;;;5070661;28;20105;-78
2023/03/09 05:45:09;;;;;;;0.55;0.10;;;18.70;58.60;;;;;;5072658;28;20386;-78
2023/03/09 05:47:38;;;;;;;1.00;0.32;;;18.70;58.50;;;;;;5067961;28;20049;-78
2023/03/09 05:50:05;;;;;;;;;;;18.70;58.40;;;;;;5053133;28;20402;-78
2023/03/09 05:52:34;;;;;;;0.88;0.20;;;18.80;58.40;;;;;;5051596;28;19928;-78
2023/03/09 05:55:01;;;;;;;0.75;0.20;;;18.80;58.20;;;;;;5061280;28;20052;-78
2023/03/09 05:57:28;;;;;;;1.45;0.30;;;18.90;58.10;;;;;;5071483;28;20048;-78
2023/03/09 05:59:54;;;;;;;0.88;0.15;;;19.00;58.00;;;;;;5071344;28;20056;-78
2023/03/09 06:02:21;;;;;;;0.80;0.20;;;19.10;57.90;;;;;;5068928;28;20053;-78
2023/03/09 06:04:50;;;;;;;0.65;0.30;;;19.20;57.80;;;;;;5071238;28;20057;-77
2023/03/09 06:07:17;;;;;;;0.90;0.30;;;19.20;57.70;;;;;;5071160;28;20097;-78
2023/03/09 06:09:45;;;;;;;0.70;0.10;;;19.30;57.60;;;;;;5070954;28;20611;-77
2023/03/09 06:12:12;;;;;;;0.77;0.22;;;19.40;58.20;;;;;;5072297;28;20760;-78
2023/03/09 06:14:40;;;;;;;1.23;0.15;;;19.40;57.40;;;;;;5066644;28;20084;-78
2023/03/09 06:17:06;;;;;;;0.90;0.20;;;19.40;57.30;;;;;;5056390;28;20661;-78
2023/03/09 06:19:33;;;;;;;0.60;0.15;;;19.50;57.30;;;;;;5085272;28;20064;-78
2023/03/09 06:22:00;;;;;;;1.00;0.30;;;19.40;57.30;;;;;;5070472;28;20048;-76
2023/03/09 06:24:27;;;;;;;0.77;0.40;;;19.50;57.40;;;;;;5071895;28;20075;-76
2023/03/09 06:26:58;;;;;;;0.98;0.20;;;19.40;58.10;;;;;;5070749;28;20512;-76
2023/03/09 06:29:25;;;;;;;1.00;0.40;;;19.40;57.40;;;;;;5071522;28;20048;-79
2023/03/09 06:31:52;;;;;;;0.85;0.22;;;19.40;57.60;;;;;;5070234;28;20068;-79
2023/03/09 06:34:19;;;;;;;0.95;0.13;;;19.40;57.70;;;;;;5052838;28;20059;-79
2023/03/09 06:36:46;;;;;;;1.45;0.28;;;19.30;57.70;;;;;;5050691;28;20056;-81
2023/03/09 06:39:13;;;;;;;1.13;0.40;;;19.30;58.20;;;;;;5052372;28;20080;-78
2023/03/09 06:41:40;;;;;;;0.98;0.30;;;19.30;59.20;;;;;;5071910;28;20099;-79
2023/03/09 06:44:09;;;;;;;2.38;0.30;;;19.30;58.50;;;;;;5070425;28;20060;-78
2023/03/09 06:46:36;;;;;;;2.75;0.40;;;19.20;58.90;;;;;;5052271;28;20056;-82
2023/03/09 06:49:03;;;;;;;1.92;0.30;;;19.20;59.70;;;;;;5051456;28;20057;-79
2023/03/09 06:51:29;;;;;;;2.40;0.30;;;19.10;59.80;;;;;;5069409;28;20048;-74
2023/03/09 06:53:57;;;;;;;1.42;0.22;;;19.10;60.00;;;;;;5069190;28;20048;-78
2023/03/09 06:56:24;;;;;;;5.38;0.50;;;19.10;60.10;;;;;;5069930;28;20060;-77
2023/03/09 06:58:53;;;;;;;2.70;0.20;;;19.10;60.80;;;;;;5066555;28;20052;-78
2023/03/09 07:01:22;;;;;;;1.75;0.30;;;19.10;60.30;;;;;;5068142;28;20055;-78
2023/03/09 07:03:49;;;;;;;2.58;0.20;;;19.00;60.30;;;;;;5071452;28;20048;-78
2023/03/09 07:06:16;;;;;;;1.83;0.30;;;18.90;60.40;;;;;;5067098;28;20136;-78
2023/03/09 07:08:43;;;;;;;4.55;0.50;;;18.90;60.40;;;;;;5068723;28;20047;-72
2023/03/09 07:11:10;;;;;;;3.20;0.30;;;18.90;60.50;;;;;;5069899;28;20498;-68
2023/03/09 07:13:37;;;;;;;2.97;0.40;;;18.90;60.60;;;;;;5069221;28;20079;-69
2023/03/09 07:16:05;;;;;;;3.35;0.32;;;18.80;60.60;;;;;;5077505;28;20689;-69
2023/03/09 07:18:34;;;;;;;2.22;0.25;;;18.80;60.70;;;;;;5089821;28;20056;-69
2023/03/09 07:21:03;;;;;;;2.83;0.28;;;18.70;60.70;;;;;;5071798;28;20044;-69
2023/03/09 07:23:31;;;;;;;2.17;0.30;;;18.70;60.80;;;;;;5069798;28;20037;-78
2023/03/09 07:26:00;;;;;;;3.03;0.50;;;18.70;60.90;;;;;;5069555;28;20083;-78
2023/03/09 07:28:27;;;;;;;;;;;18.70;60.90;;;;;;5066622;28;20046;-78
2023/03/09 07:30:54;;;;;;;2.90;0.20;;;18.70;60.90;;;;;;5068466;28;19955;-78
2023/03/09 07:33:21;;;;;;;1.80;0.22;;;18.70;60.90;;;;;;5069823;28;20045;-78
2023/03/09 07:35:50;;;;;;;1.55;0.20;;;18.60;60.80;;;;;;5070612;28;20543;-78
2023/03/09 07:38:17;;;;;;;3.05;0.30;;;18.60;60.90;;;;;;5070748;28;20048;-79
2023/03/09 07:40:44;;;;;;;2.00;0.40;;;18.70;60.90;;;;;;5070591;28;20486;-78
2023/03/09 07:43:12;;;;;;;1.02;0.40;;;18.60;60.80;;;;;;5069266;28;20048;-78
2023/03/09 07:45:40;;;;;;;1.63;0.40;;;18.70;61.50;;;;;;5066560;28;22231;-78
2023/03/09 07:48:08;;;;;;;1.23;0.30;;;18.70;60.80;;;;;;5067553;28;20057;-78
2023/03/09 07:50:35;;;;;;;0.90;0.20;;;18.70;60.70;;;;;;5068587;28;20136;-78
2023/03/09 07:53:03;;;;;;;2.30;0.20;;;18.70;60.60;;;;;;5062897;28;20068;-78
2023/03/09 07:55:34;;;;;;;4.85;0.45;;;18.80;60.60;;;;;;5062543;28;20075;-78
2023/03/09 07:58:01;;;;;;;4.25;0.32;;;18.80;60.50;;;;;;5069436;28;20088;-78
2023/03/09 08:00:29;;;;;;;1.50;0.25;;;18.90;60.40;;;;;;5069213;28;20103;-78
2023/03/09 08:02:57;;;;;;;1.10;0.20;;;19.00;60.40;;;;;;5070882;28;20055;-78
2023/03/09 08:05:24;;;;;;;1.90;0.28;;;19.00;60.20;;;;;;5071162;28;20121;-78
2023/03/09 08:07:51;;;;;;;0.95;0.15;;;19.00;60.20;;;;;;5069080;28;20055;-77
2023/03/09 08:10:20;;;;;;;1.10;0.20;;;19.00;60.10;;;;;;5070491;28;20044;-78
2023/03/09 08:12:49;;;;;;;1.73;0.30;;;19.10;60.10;;;;;;5068887;28;20102;-78
2023/03/09 08:15:18;;;;;;;2.50;0.25;;;19.10;60.00;;;;;;5050129;28;20080;-78
2023/03/09 08:17:45;;;;;;;1.73;0.25;;;19.20;60.00;;;;;;5048752;28;20060;-78
2023/03/09 08:20:12;;;;;;;1.42;0.20;;;19.20;59.90;;;;;;5050045;28;20085;-78
2023/03/09 08:22:40;;;;;;;1.25;0.25;;;19.30;59.80;;;;;;5049036;28;20291;-78
2023/03/09 08:25:08;;;;;;;0.93;0.17;;;19.40;59.70;;;;;;5049518;28;20065;-78
2023/03/09 08:27:41;;;;;;;1.52;0.30;;;19.40;59.60;;;;;;5050088;28;20402;-78
2023/03/09 08:30:12;;;;;;;1.02;0.20;;;19.50;59.50;;;;;;5050122;28;20044;-78
2023/03/09 08:32:40;;;;;;;2.03;0.20;;;19.50;59.40;;;;;;5065753;28;20049;-78
2023/03/09 08:35:07;;;;;;;1.20;0.30;;;19.50;59.40;;;;;;5066858;28;20059;-78
2023/03/09 08:37:34;;;;;;;1.80;0.40;;;19.50;59.40;;;;;;5068653;28;20059;-78
2023/03/09 08:40:01;;;;;;;1.15;0.20;;;19.50;59.40;;;;;;5068369;28;20536;-78
2023/03/09 08:42:28;;;;;;;2.00;0.35;;;19.50;59.40;;;;;;5069702;28;20048;-78
2023/03/09 08:44:56;;;;;;;1.30;0.28;;;19.50;59.40;;;;;;5065283;28;20049;-77
2023/03/09 08:47:23;;;;;;;2.00;0.22;;;19.50;59.40;;;;;;5049508;28;20044;-78
2023/03/09 08:49:50;;;;;;;1.85;0.20;;;19.50;59.50;;;;;;5052340;28;20105;-78
2023/03/09 08:52:17;;;;;;;1.30;0.13;;;19.40;59.40;;;;;;5068621;28;20079;-78
2023/03/09 08:54:44;;;;;;;1.35;0.20;;;19.40;59.50;;;;;;5069787;28;20049;-78
2023/03/09 08:57:11;;;;;;;2.08;0.20;;;19.40;59.50;;;;;;5069916;28;20051;-78
2023/03/09 08:59:38;;;;;;;1.92;0.43;;;19.40;59.50;;;;;;5069710;28;20056;-78
2023/03/09 09:02:07;;;;;;;1.05;0.20;;;19.40;59.60;;;;;;5067822;28;20064;-78
2023/03/09 09:04:34;;;;;;;1.75;0.20;;;19.40;59.70;;;;;;5048141;28;20049;-77
2023/03/09 09:07:01;;;;;;;1.38;0.28;;;19.30;59.70;;;;;;5049886;28;20052;-78
2023/03/09 09:09:28;;;;;;;1.05;0.20;;;19.30;60.30;;;;;;5052445;28;20156;-78
2023/03/09 09:11:55;;;;;;;2.80;0.30;;;19.30;59.80;;;;;;5052205;28;20055;-78
2023/03/09 09:14:22;;;;;;;1.13;0.40;;;19.20;59.80;;;;;;5069002;28;20057;-78
2023/03/09 09:16:50;;;;;;;1.17;0.30;;;19.20;59.80;;;;;;5056848;28;20048;-78
2023/03/09 09:19:19;;;;;;;0.90;0.20;;;19.20;59.90;;;;;;5072324;28;20080;-78
2023/03/09 09:21:46;;;;;;;0.93;0.30;;;19.10;59.90;;;;;;5072197;28;20048;-79
2023/03/09 09:24:13;;;;;;;0.93;0.22;;;19.10;59.80;;;;;;5072984;28;20055;-78
2023/03/09 09:26:40;;;;;;;1.75;0.40;;;19.10;59.90;;;;;;5073324;28;20052;-78
2023/03/09 09:29:08;;;;;;;1.73;0.20;;;19.10;60.00;;;;;;5073683;28;20048;-78
2023/03/09 09:31:35;;;;;;;0.95;0.40;;;19.10;60.00;;;;;;5071390;28;20060;-78
2023/03/09 09:34:01;;;;;;;1.20;0.20;;;19.00;60.00;;;;;;5073522;28;20394;-78
2023/03/09 09:36:30;;;;;;;2.20;0.32;;;19.00;60.00;;;;;;5071487;28;20057;-78
2023/03/09 09:38:57;;;;;;;0.90;0.20;;;19.00;60.00;;;;;;5071926;28;20052;-78
2023/03/09 09:41:27;;;;;;;0.90;0.32;;;18.90;60.00;;;;;;5071630;28;20052;-78
2023/03/09 09:43:59;;;;;;;1.73;0.20;;;18.90;60.00;;;;;;5070528;28;20053;-79
2023/03/09 09:46:29;;;;;;;1.35;0.20;;;18.90;60.10;;;;;;5073038;28;20397;-78
2023/03/09 09:48:57;;;;;;;2.03;0.20;;;18.90;60.10;;;;;;5071619;28;20088;-78
2023/03/09 09:51:51;;;;;;;1.58;0.30;;;18.90;60.70;;;;;;5071598;28;20053;-78
2023/03/09 09:54:29;;;;;;;1.40;0.35;;;18.80;60.10;;;;;;5072640;28;20052;-78
2023/03/09 09:57:00;;;;;;;1.67;0.20;;;18.80;60.20;;;;;;5071285;28;20083;-78
2023/03/09 09:59:33;;;;;;;1.02;0.30;;;18.80;60.10;;;;;;5065108;28;20429;-78
2023/03/09 10:02:17;;;;;;;1.00;0.15;;;18.80;60.10;;;;;;5052459;28;20419;-78
2023/03/09 10:04:47;;;;;;;2.75;0.50;;;18.80;60.20;;;;;;5052817;28;20049;-78
2023/03/09 10:07:18;;;;;;;1.33;0.30;;;18.80;60.20;;;;;;5062791;28;20505;-79
2023/03/09 10:09:47;;;;;;;1.30;0.30;;;18.70;60.20;;;;;;5071290;28;20053;-78
2023/03/09 10:12:16;;;;;;;1.05;0.28;;;18.80;60.20;;;;;;5068199;28;20052;-78
2023/03/09 10:14:50;;;;;;;0.90;0.20;;;18.70;60.10;;;;;;5072084;28;20049;-78
2023/03/09 10:17:21;;;;;;;0.95;0.10;;;18.80;60.20;;;;;;5070687;28;20066;-78
2023/03/09 10:19:49;;;;;;;0.95;0.20;;;18.80;60.10;;;;;;5069708;28;20056;-78
2023/03/09 10:22:23;;;;;;;0.80;0.25;;;18.80;60.00;;;;;;5072127;28;20064;-78
2023/03/09 10:24:51;;;;;;;1.08;0.30;;;18.90;60.00;;;;;;5072144;28;20163;-78
2023/03/09 10:27:21;;;;;;;0.50;0.20;;;18.90;60.00;;;;;;5060468;28;20052;-78
2023/03/09 10:29:55;;;;;;;2.17;0.40;;;19.00;59.90;;;;;;5052433;28;20048;-78
2023/03/09 10:32:27;;;;;;;1.38;0.30;;;19.00;59.80;;;;;;5052056;28;20572;-78
2023/03/09 10:34:59;;;;;;;1.13;0.22;;;19.10;59.70;;;;;;5066012;28;20055;-78
2023/03/09 10:37:33;;;;;;;1.35;0.30;;;19.20;59.70;;;;;;5071914;28;20128;-78
2023/03/09 10:40:03;;;;;;;1.67;0.20;;;19.20;59.60;;;;;;5069673;28;20057;-78
2023/03/09 10:42:37;;;;;;;1.02;0.30;;;19.30;59.50;;;;;;5071337;28;20052;-78
2023/03/09 10:45:16;;;;;;;2.22;0.73;;;19.40;59.40;;;;;;5070242;28;20051;-79
2023/03/09 10:47:59;;;;;;;1.23;0.20;;;19.40;59.30;;;;;;5071498;28;20056;-78
2023/03/09 10:50:28;;;;;;;1.20;0.20;;;19.40;59.20;;;;;;5071598;28;20045;-77
2023/03/09 10:52:56;;;;;;;1.30;0.30;;;19.40;59.20;;;;;;5072163;28;20053;-80
2023/03/09 10:55:41;;;;;;;1.20;0.32;;;19.50;59.20;;;;;;5069027;28;20052;-82
2023/03/09 10:58:16;;;;;;;1.42;0.20;;;19.40;59.10;;;;;;5068886;28;20517;-79
2023/03/09 11:01:02;;;;;;;1.00;0.30;;;19.50;59.10;;;;;;5070241;28;20048;-79
2023/03/09 11:03:37;;;;;;;0.90;0.20;;;19.40;59.00;;;;;;5069764;28;20056;-79
2023/03/09 11:06:23;;;;;;;1.38;0.22;;;19.40;59.00;;;;;;5051367;28;20052;-79
2023/03/09 11:08:57;;;;;;;1.25;0.30;;;19.40;59.10;;;;;;5066719;28;20059;-79
2023/03/09 11:11:27;;;;;;;1.42;0.40;;;19.40;59.20;;;;;;5060210;28;20048;-79
2023/03/09 11:13:54;;;;;;;;;;;19.30;59.10;;;;;;5069581;28;20052;-79
2023/03/09 11:16:24;;;;;;;1.13;0.20;;;19.30;59.10;;;;;;5070031;28;19927;-79
2023/03/09 11:19:11;;;;;;;1.02;0.30;;;19.30;59.20;;;;;;5069831;28;20060;-78
2023/03/09 11:21:43;;;;;;;0.88;0.20;;;19.30;59.30;;;;;;5069914;28;20390;-79
2023/03/09 11:24:14;;;;;;;1.40;0.20;;;19.30;59.40;;;;;;5070793;28;20785;-78
2023/03/09 11:26:45;;;;;;;1.00;0.10;;;19.20;59.40;;;;;;5068872;28;20074;-75
2023/03/09 11:29:21;;;;;;;1.10;0.22;;;19.20;59.40;;;;;;5058243;28;20053;-78
2023/03/09 11:31:48;;;;;;;1.20;0.30;;;19.20;59.50;;;;;;5067319;28;20494;-70
2023/03/09 11:34:18;;;;;;;1.52;0.30;;;19.20;59.50;;;;;;5053475;28;20069;-69
2023/03/09 11:36:50;;;;;;;2.25;0.35;;;19.10;59.70;;;;;;5054701;28;20056;-69
2023/03/09 11:39:25;;;;;;;1.20;0.13;;;19.10;59.70;;;;;;5060822;28;20059;-79
2023/03/09 11:41:55;;;;;;;0.80;0.20;;;19.10;59.80;;;;;;5061302;28;20059;-69
2023/03/09 11:44:28;;;;;;;0.85;0.25;;;19.10;59.90;;;;;;5063770;28;20708;-68
2023/03/09 11:47:00;;;;;;;1.48;0.35;;;19.10;60.60;;;;;;5067727;28;20448;-69
2023/03/09 11:49:29;;;;;;;3.05;0.45;;;19.00;60.10;;;;;;5063425;28;20052;-67
2023/03/09 11:51:58;;;;;;;1.67;0.40;;;19.10;60.20;;;;;;5051867;28;20057;-69
2023/03/09 11:54:30;;;;;;;1.13;0.15;;;19.10;60.30;;;;;;5055902;28;20057;-68
2023/03/09 11:57:02;;;;;;;2.88;0.40;;;19.00;60.90;;;;;;5066003;28;20048;-80
2023/03/09 11:59:35;;;;;;;1.77;0.35;;;19.00;60.40;;;;;;5065998;28;20409;-68
2023/03/09 12:02:11;;;;;;;3.00;0.82;;;19.00;60.50;;;;;;5067892;28;20049;-68
2023/03/09 12:04:38;;;;;;;1.20;0.22;;;19.00;60.50;;;;;;5058726;28;20060;-68
2023/03/09 12:07:13;;;;;;;1.42;0.25;;;19.00;60.50;;;;;;5065281;28;20049;-69
2023/03/09 12:09:56;;;;;;;0.90;0.10;;;19.00;60.60;;;;;;5057810;28;20057;-69
2023/03/09 12:12:29;;;;;;;1.80;0.20;;;19.00;60.70;;;;;;5068615;28;20067;-68
2023/03/09 12:15:01;;;;;;;1.05;0.30;;;18.90;60.60;;;;;;5066296;28;20729;-70
2023/03/09 12:17:32;;;;;;;0.85;0.30;;;18.90;60.70;;;;;;5067563;28;20052;-70
2023/03/09 12:20:00;;;;;;;1.60;0.30;;;18.90;60.70;;;;;;5049266;28;20060;-80
2023/03/09 12:22:33;;;;;;;1.67;0.40;;;18.90;60.70;;;;;;5056378;28;20045;-87
2023/03/09 12:25:03;;;;;;;1.30;0.28;;;18.90;60.80;;;;;;5067233;28;20053;-80
2023/03/09 12:27:33;;;;;;;1.45;0.30;;;18.90;60.80;;;;;;5065397;28;20055;-80
2023/03/09 12:30:21;;;;;;;2.28;0.22;;;18.90;60.80;;;;;;5060136;28;20456;-79
2023/03/09 12:32:48;;;;;;;0.88;0.30;;;18.80;60.80;;;;;;5078228;28;20084;-80
2023/03/09 12:35:58;;;;;;;2.15;0.63;;;18.90;60.80;;;;;;5067724;28;20052;-79
2023/03/09 12:38:27;;;;;;;1.77;0.30;;;18.80;60.80;;;;;;5070143;28;20052;-80
2023/03/09 12:40:55;;;;;;;1.42;0.30;;;18.90;60.70;;;;;;5065632;28;20048;-79
2023/03/09 12:43:53;;;;;;;0.85;0.20;;;18.90;60.70;;;;;;5067735;28;20150;-80
2023/03/09 12:46:50;;;;;;;0.90;0.20;;;18.90;61.30;;;;;;5057857;28;20056;-80
2023/03/09 12:49:19;;;;;;;1.83;0.50;;;18.90;60.60;;;;;;5053710;28;20060;-79
2023/03/09 12:51:53;;;;;;;1.00;0.20;;;19.00;60.50;;;;;;5048357;28;20045;-79
2023/03/09 12:54:23;;;;;;;1.85;0.30;;;19.00;60.50;;;;;;5068944;28;20052;-80
2023/03/09 12:56:53;;;;;;;2.03;0.20;;;19.10;60.40;;;;;;5068448;28;20475;-80
2023/03/09 12:59:27;;;;;;;1.30;0.30;;;19.10;60.30;;;;;;5067838;28;20420;-80